createdAt,value
2023-09-06T00:02:05.212Z,7.93
2023-09-06T00:04:52.321Z,7.65
2023-09-06T00:07:39.184Z,7.53
2023-09-06T00:10:26.474Z,7.70
2023-09-06T00:13:14.178Z,7.50
2023-09-06T00:16:02.293Z,7.75
2023-09-06T00:18:49.255Z,8.20
2023-09-06T00:21:41.892Z,8.35
2023-09-06T00:24:28.872Z,7.10
2023-09-06T00:27:16.047Z,7.18
2023-09-06T00:30:02.955Z,7.65
2023-09-06T00:32:54.750Z,8.38
2023-09-06T00:35:42.099Z,7.22
2023-09-06T00:38:30.157Z,7.68
2023-09-06T00:41:17.324Z,6.95
2023-09-06T00:44:05.088Z,7.93
2023-09-06T00:46:52.011Z,6.70
2023-09-06T00:49:39.199Z,7.57
2023-09-06T00:52:26.448Z,6.50
2023-09-06T00:55:13.598Z,7.85
2023-09-06T00:58:00.545Z,8.45
2023-09-06T01:00:49.223Z,7.05
2023-09-06T01:03:36.464Z,7.03
2023-09-06T01:06:27.597Z,7.85
2023-09-06T01:09:15.570Z,8.05
2023-09-06T01:12:02.399Z,6.72
2023-09-06T01:14:49.311Z,7.72
2023-09-06T01:17:38.131Z,7.07
2023-09-06T01:20:53.358Z,8.02
2023-09-06T01:23:41.562Z,7.72
2023-09-06T01:26:28.533Z,8.00
2023-09-06T01:29:15.448Z,7.32
2023-09-06T01:32:02.357Z,7.25
2023-09-06T01:34:49.236Z,7.30
2023-09-06T01:37:38.387Z,7.85
2023-09-06T01:40:27.612Z,7.35
2023-09-06T01:43:14.645Z,6.35
2023-09-06T01:46:01.631Z,8.07
2023-09-06T01:48:48.627Z,6.50
2023-09-06T01:51:36.139Z,7.10
2023-09-06T01:54:22.972Z,6.50
2023-09-06T01:57:09.868Z,7.25
2023-09-06T01:59:56.730Z,6.55
2023-09-06T02:02:43.613Z,7.97
2023-09-06T02:05:33.486Z,8.93
2023-09-06T02:08:20.349Z,7.60
2023-09-06T02:11:07.829Z,8.30
2023-09-06T02:13:54.830Z,7.47
2023-09-06T02:16:41.838Z,7.25
2023-09-06T02:19:28.798Z,7.05
2023-09-06T02:22:15.646Z,7.65
2023-09-06T02:25:02.613Z,7.03
2023-09-06T02:27:49.577Z,6.93
2023-09-06T02:30:37.943Z,7.35
2023-09-06T02:33:26.382Z,7.38
2023-09-06T02:36:13.440Z,7.15
2023-09-06T02:39:00.252Z,6.50
2023-09-06T02:41:47.917Z,7.68
2023-09-06T02:44:34.765Z,6.57
2023-09-06T02:47:29.746Z,7.63
2023-09-06T02:50:18.090Z,6.82
2023-09-06T02:53:05.185Z,6.45
2023-09-06T02:55:53.508Z,7.32
2023-09-06T02:58:43.057Z,6.90
2023-09-06T03:01:31.733Z,7.18
2023-09-06T03:04:18.851Z,7.82
2023-09-06T03:07:09.792Z,7.20
2023-09-06T03:09:57.919Z,7.95
2023-09-06T03:12:45.153Z,7.80
2023-09-06T03:15:32.554Z,7.13
2023-09-06T03:18:23.870Z,6.90
2023-09-06T03:21:11.834Z,6.90
2023-09-06T03:24:00.548Z,7.07
2023-09-06T03:26:47.413Z,7.25
2023-09-06T03:29:39.955Z,6.97
2023-09-06T03:32:27.362Z,7.30
2023-09-06T03:35:17.305Z,6.93
2023-09-06T03:38:09.365Z,7.00
2023-09-06T03:40:56.392Z,7.68
2023-09-06T03:43:43.970Z,6.80
2023-09-06T03:46:30.854Z,6.85
2023-09-06T03:49:17.842Z,7.32
2023-09-06T03:52:05.923Z,7.13
2023-09-06T03:54:52.837Z,7.00
2023-09-06T03:57:40.107Z,8.07
2023-09-06T04:00:32.377Z,7.72
2023-09-06T04:03:23.947Z,6.30
2023-09-06T04:06:12.322Z,7.70
2023-09-06T04:08:59.627Z,7.55
2023-09-06T04:11:47.825Z,7.95
2023-09-06T04:14:39.787Z,7.20
2023-09-06T04:17:28.843Z,6.72
2023-09-06T04:20:20.567Z,7.45
2023-09-06T04:23:09.762Z,7.00
2023-09-06T04:25:56.760Z,7.22
2023-09-06T04:28:43.767Z,7.07
2023-09-06T04:31:31.388Z,7.63
2023-09-06T04:34:18.328Z,6.95
2023-09-06T04:37:05.180Z,8.05
2023-09-06T04:39:54.446Z,7.15
2023-09-06T04:42:42.381Z,9.02
2023-09-06T04:45:29.279Z,7.93
2023-09-06T04:48:18.200Z,8.13
2023-09-06T04:51:06.277Z,8.00
2023-09-06T04:53:53.631Z,8.90
2023-09-06T04:56:41.636Z,7.35
2023-09-06T04:59:28.502Z,7.40
2023-09-06T05:02:17.173Z,6.82
2023-09-06T05:07:51.679Z,8.02
2023-09-06T05:10:40.260Z,9.05
2023-09-06T05:13:29.750Z,7.85
2023-09-06T05:16:17.874Z,8.57
2023-09-06T05:19:04.786Z,8.40
2023-09-06T05:21:51.645Z,7.38
2023-09-06T05:24:38.549Z,8.27
2023-09-06T05:27:28.643Z,8.63
2023-09-06T05:30:15.884Z,8.60
2023-09-06T05:33:04.136Z,8.20
2023-09-06T05:35:51.018Z,7.72
2023-09-06T05:38:37.905Z,8.40
2023-09-06T05:41:24.786Z,8.65
2023-09-06T05:44:11.746Z,8.82
2023-09-06T05:46:58.810Z,8.15
2023-09-06T05:49:45.827Z,7.90
2023-09-06T05:52:32.946Z,9.52
2023-09-06T05:55:19.778Z,8.60
2023-09-06T05:58:06.714Z,8.38
2023-09-06T06:00:56.302Z,8.82
2023-09-06T06:03:44.289Z,9.73
2023-09-06T06:06:31.415Z,9.25
2023-09-06T06:09:22.895Z,8.95
2023-09-06T06:12:11.237Z,10.15
2023-09-06T06:15:01.162Z,8.25
2023-09-06T06:17:49.061Z,10.05
2023-09-06T06:20:44.031Z,8.05
2023-09-06T06:23:31.611Z,8.63
2023-09-06T06:26:20.642Z,8.98
2023-09-06T06:29:07.805Z,9.63
2023-09-06T06:31:54.898Z,8.50
2023-09-06T06:34:44.304Z,8.55
2023-09-06T06:37:31.140Z,8.73
2023-09-06T06:40:18.003Z,10.13
2023-09-06T06:43:05.063Z,8.13
2023-09-06T06:45:56.559Z,8.23
2023-09-06T06:48:43.772Z,7.75
2023-09-06T06:51:36.070Z,8.82
2023-09-06T06:54:24.620Z,7.90
2023-09-06T06:57:11.451Z,12.90
2023-09-06T07:00:09.997Z,8.45
2023-09-06T07:05:46.799Z,8.10
2023-09-06T07:08:33.757Z,7.82
2023-09-06T07:11:21.225Z,8.55
2023-09-06T07:14:08.362Z,8.35
2023-09-06T07:16:55.545Z,8.18
2023-09-06T07:19:43.222Z,8.30
2023-09-06T07:22:30.343Z,9.30
2023-09-06T07:25:17.395Z,8.23
2023-09-06T07:28:05.070Z,8.40
2023-09-06T07:30:52.330Z,8.88
2023-09-06T07:33:39.991Z,8.85
2023-09-06T07:36:26.980Z,8.13
2023-09-06T07:39:13.915Z,7.80
2023-09-06T07:42:00.817Z,8.00
2023-09-06T07:44:47.690Z,8.85
2023-09-06T07:47:35.383Z,9.35
2023-09-06T07:50:22.414Z,7.73
2023-09-06T07:53:10.012Z,8.18
2023-09-06T07:55:57.100Z,7.68
2023-09-06T07:58:44.179Z,7.75
2023-09-06T08:01:31.159Z,7.97
2023-09-06T08:04:22.101Z,8.70
2023-09-06T08:07:09.537Z,9.18
2023-09-06T08:09:57.039Z,7.65
2023-09-06T08:12:44.020Z,7.60
2023-09-06T08:15:32.121Z,7.72
2023-09-06T08:18:19.024Z,8.27
2023-09-06T08:21:06.233Z,8.13
2023-09-06T08:23:53.192Z,8.52
2023-09-06T08:26:40.058Z,8.48
2023-09-06T08:29:26.950Z,7.82
2023-09-06T08:32:13.850Z,8.20
2023-09-06T08:35:00.822Z,7.68
2023-09-06T08:37:47.649Z,8.20
2023-09-06T08:40:34.618Z,8.90
2023-09-06T08:43:22.289Z,7.50
2023-09-06T08:46:23.430Z,7.22
2023-09-06T08:49:10.946Z,6.85
2023-09-06T08:51:59.743Z,8.13
2023-09-06T08:54:47.706Z,7.63
2023-09-06T08:57:35.682Z,7.45
2023-09-06T09:00:25.078Z,8.00
2023-09-06T09:03:12.301Z,8.07
2023-09-06T09:06:06.116Z,6.38
2023-09-06T09:08:52.937Z,8.00
2023-09-06T09:11:44.751Z,7.82
2023-09-06T09:14:31.589Z,6.97
2023-09-06T09:17:21.302Z,7.75
2023-09-06T09:20:10.988Z,7.53
2023-09-06T09:23:04.347Z,6.20
2023-09-06T09:25:51.524Z,6.80
2023-09-06T09:28:38.556Z,6.25
2023-09-06T09:31:28.457Z,6.80
2023-09-06T09:34:15.498Z,5.70
2023-09-06T09:37:02.945Z,7.28
2023-09-06T09:39:49.954Z,6.20
2023-09-06T09:42:36.860Z,6.10
2023-09-06T09:45:26.065Z,7.18
2023-09-06T09:48:13.188Z,7.05
2023-09-06T09:51:05.952Z,5.95
2023-09-06T09:53:55.826Z,8.68
2023-09-06T09:56:46.769Z,6.47
2023-09-06T09:59:35.124Z,6.90
2023-09-06T10:02:31.426Z,7.78
2023-09-06T10:05:22.362Z,6.07
2023-09-06T10:08:10.634Z,7.20
2023-09-06T10:10:57.556Z,7.32
2023-09-06T10:13:44.859Z,6.53
2023-09-06T10:16:32.831Z,7.63
2023-09-06T10:19:21.304Z,6.38
2023-09-06T10:22:10.582Z,5.72
2023-09-06T10:25:07.444Z,7.28
2023-09-06T10:28:00.559Z,6.28
2023-09-06T10:30:55.024Z,6.65
2023-09-06T10:33:43.365Z,5.63
2023-09-06T10:36:31.469Z,7.53
2023-09-06T10:39:22.425Z,7.38
2023-09-06T10:42:09.887Z,5.63
2023-09-06T10:44:56.730Z,6.45
2023-09-06T10:47:44.015Z,5.05
2023-09-06T10:50:31.243Z,5.88
2023-09-06T10:53:21.257Z,6.07
2023-09-06T10:56:08.485Z,6.43
2023-09-06T10:58:58.563Z,6.65
2023-09-06T11:02:07.590Z,6.90
2023-09-06T11:05:10.326Z,6.68
2023-09-06T11:07:57.598Z,5.05
2023-09-06T11:10:44.528Z,6.38
2023-09-06T11:13:34.075Z,7.60
2023-09-06T11:16:21.996Z,6.90
2023-09-06T11:19:09.670Z,6.88
2023-09-06T11:22:07.471Z,7.15
2023-09-06T11:24:54.337Z,6.53
2023-09-06T11:27:41.236Z,7.30
2023-09-06T11:30:32.704Z,6.75
2023-09-06T11:33:19.644Z,6.82
2023-09-06T11:36:06.676Z,6.05
2023-09-06T11:38:54.315Z,5.45
2023-09-06T11:41:42.648Z,6.00
2023-09-06T11:44:29.595Z,6.75
2023-09-06T11:47:20.799Z,6.88
2023-09-06T11:50:10.155Z,6.18
2023-09-06T11:52:59.859Z,6.85
2023-09-06T11:55:50.507Z,7.13
2023-09-06T11:58:46.488Z,5.75
2023-09-06T12:01:40.850Z,7.05
2023-09-06T12:04:29.880Z,6.63
2023-09-06T12:07:17.205Z,7.05
2023-09-06T12:10:05.968Z,7.30
2023-09-06T12:12:53.161Z,8.18
2023-09-06T12:15:41.080Z,6.70
2023-09-06T12:18:30.268Z,7.45
2023-09-06T12:21:17.705Z,7.55
2023-09-06T12:24:05.074Z,7.05
2023-09-06T12:26:52.057Z,6.53
2023-09-06T12:29:39.847Z,6.63
2023-09-06T12:32:29.711Z,6.38
2023-09-06T12:35:17.025Z,8.45
2023-09-06T12:38:04.048Z,7.18
2023-09-06T12:40:51.356Z,7.57
2023-09-06T12:43:38.444Z,6.40
2023-09-06T12:46:25.391Z,6.35
2023-09-06T12:49:12.413Z,5.53
2023-09-06T12:51:59.259Z,7.15
2023-09-06T12:54:46.111Z,6.38
2023-09-06T12:57:33.052Z,5.78
2023-09-06T13:00:20.116Z,5.32
2023-09-06T13:03:07.504Z,5.57
2023-09-06T13:05:56.758Z,5.47
2023-09-06T13:08:45.528Z,6.45
2023-09-06T13:11:33.002Z,6.95
2023-09-06T13:14:20.756Z,6.65
2023-09-06T13:17:07.698Z,7.13
2023-09-06T13:19:55.786Z,6.80
2023-09-06T13:25:30.318Z,6.67
2023-09-06T13:28:18.787Z,7.25
2023-09-06T13:31:07.154Z,7.22
2023-09-06T13:33:54.980Z,6.20
2023-09-06T13:36:41.838Z,8.75
2023-09-06T13:39:29.045Z,7.35
2023-09-06T13:42:17.310Z,8.13
2023-09-06T13:47:52.649Z,7.05
2023-09-06T13:50:39.648Z,6.95
2023-09-06T13:53:26.703Z,7.38
2023-09-06T13:56:14.205Z,6.65
2023-09-06T13:59:01.134Z,8.10
2023-09-06T14:01:48.165Z,7.22
2023-09-06T14:04:36.074Z,6.47
2023-09-06T14:07:23.145Z,6.63
2023-09-06T14:10:10.231Z,6.90
2023-09-06T14:12:57.108Z,6.35
2023-09-06T14:15:44.017Z,6.43
2023-09-06T14:18:31.166Z,6.10
2023-09-06T14:21:21.857Z,6.47
2023-09-06T14:24:09.188Z,7.25
2023-09-06T14:26:56.091Z,6.27
2023-09-06T14:29:42.951Z,6.75
2023-09-06T14:32:29.942Z,8.13
2023-09-06T14:35:16.829Z,6.78
2023-09-06T14:38:03.931Z,6.28
2023-09-06T14:40:50.890Z,6.43
2023-09-06T14:43:37.760Z,6.07
2023-09-06T14:46:24.785Z,5.47
2023-09-06T14:49:13.312Z,5.13
2023-09-06T14:52:01.996Z,5.93
2023-09-06T14:54:49.318Z,6.80
2023-09-06T14:57:36.218Z,6.18
2023-09-06T15:00:23.332Z,5.18
2023-09-06T15:03:10.357Z,5.50
2023-09-06T15:05:58.057Z,5.45
2023-09-06T15:08:45.553Z,6.50
2023-09-06T15:11:32.504Z,6.10
2023-09-06T15:14:19.919Z,5.25
2023-09-06T15:17:08.542Z,5.25
2023-09-06T15:19:55.569Z,5.82
2023-09-06T15:22:42.429Z,6.20
2023-09-06T15:25:30.522Z,4.97
2023-09-06T15:28:17.341Z,4.78
2023-09-06T15:31:04.223Z,4.13
2023-09-06T15:33:51.198Z,4.93
2023-09-06T15:36:38.339Z,5.70
2023-09-06T15:39:25.184Z,4.70
2023-09-06T15:42:12.153Z,4.20
2023-09-06T15:44:59.285Z,3.65
2023-09-06T15:47:46.804Z,4.53
2023-09-06T15:50:33.863Z,4.50
2023-09-06T15:53:20.797Z,4.13
2023-09-06T15:56:07.614Z,4.43
2023-09-06T15:58:55.199Z,5.88
2023-09-06T16:01:42.861Z,4.43
2023-09-06T16:04:29.962Z,7.07
2023-09-06T16:07:16.889Z,5.15
2023-09-06T16:10:04.857Z,4.85
2023-09-06T16:12:51.758Z,5.40
2023-09-06T16:15:38.613Z,3.67
2023-09-06T16:18:25.691Z,5.70
2023-09-06T16:21:12.541Z,5.50
2023-09-06T16:24:03.312Z,5.88
2023-09-06T16:26:53.036Z,4.97
2023-09-06T16:29:40.098Z,5.18
2023-09-06T16:32:27.061Z,5.18
2023-09-06T16:35:14.048Z,5.38
2023-09-06T16:38:00.940Z,6.10
2023-09-06T16:40:47.922Z,6.00
2023-09-06T16:43:34.788Z,5.63
2023-09-06T16:46:21.761Z,6.15
2023-09-06T16:49:08.800Z,7.85
2023-09-06T16:51:55.802Z,6.55
2023-09-06T16:54:42.677Z,5.88
2023-09-06T16:57:29.520Z,5.20
2023-09-06T17:00:16.450Z,5.20
2023-09-06T17:03:03.598Z,4.90
2023-09-06T17:05:50.661Z,5.22
2023-09-06T17:08:37.576Z,6.38
2023-09-06T17:11:24.476Z,6.07
2023-09-06T17:14:12.601Z,6.03
2023-09-06T17:19:46.659Z,4.85
2023-09-06T17:22:33.567Z,5.95
2023-09-06T17:25:22.019Z,4.88
2023-09-06T17:28:10.068Z,4.85
2023-09-06T17:30:59.620Z,5.47
2023-09-06T17:33:46.668Z,5.68
2023-09-06T17:36:35.691Z,4.63
2023-09-06T17:39:24.383Z,5.68
2023-09-06T17:42:11.215Z,6.88
2023-09-06T17:45:00.001Z,5.45
2023-09-06T17:47:48.131Z,5.32
2023-09-06T17:53:30.838Z,6.10
2023-09-06T17:56:18.976Z,4.97
2023-09-06T17:59:08.397Z,5.22
2023-09-06T18:01:55.811Z,6.40
2023-09-06T18:04:42.985Z,6.13
2023-09-06T18:07:29.898Z,4.85
2023-09-06T18:10:16.736Z,4.95
2023-09-06T18:13:07.353Z,6.03
2023-09-06T18:15:54.720Z,4.30
2023-09-06T18:18:41.995Z,5.50
2023-09-06T18:21:29.981Z,6.15
2023-09-06T18:24:16.832Z,6.28
2023-09-06T18:27:08.499Z,4.68
2023-09-06T18:29:55.734Z,5.68
2023-09-06T18:32:43.673Z,5.30
2023-09-06T18:35:30.652Z,5.70
2023-09-06T18:38:17.525Z,5.53
2023-09-06T18:41:10.290Z,5.22
2023-09-06T18:43:58.362Z,6.57
2023-09-06T18:46:45.390Z,6.05
2023-09-06T18:49:36.473Z,6.90
2023-09-06T18:52:23.982Z,6.00
2023-09-06T18:55:11.566Z,6.47
2023-09-06T18:58:05.533Z,6.30
2023-09-06T19:00:53.448Z,6.18
2023-09-06T19:03:42.206Z,5.95
2023-09-06T19:06:35.280Z,5.22
2023-09-06T19:09:22.154Z,5.20
2023-09-06T19:12:09.068Z,5.53
2023-09-06T19:14:56.026Z,6.50
2023-09-06T19:17:45.135Z,5.88
2023-09-06T19:20:32.716Z,6.65
2023-09-06T19:23:21.826Z,6.18
2023-09-06T19:26:10.038Z,5.35
2023-09-06T19:28:57.061Z,6.65
2023-09-06T19:31:44.078Z,5.82
2023-09-06T19:34:31.041Z,5.65
2023-09-06T19:37:18.809Z,6.15
2023-09-06T19:40:06.391Z,7.68
2023-09-06T19:42:54.335Z,6.20
2023-09-06T19:45:41.263Z,6.07
2023-09-06T19:48:28.145Z,5.97
2023-09-06T19:51:15.046Z,6.50
2023-09-06T19:54:02.891Z,6.25
2023-09-06T19:56:49.806Z,6.47
2023-09-06T19:59:37.814Z,6.40
2023-09-06T20:02:24.889Z,6.63
2023-09-06T20:05:12.327Z,6.88
2023-09-06T20:07:59.978Z,5.72
2023-09-06T20:10:47.504Z,6.00
2023-09-06T20:13:34.370Z,6.80
2023-09-06T20:16:21.781Z,6.32
2023-09-06T20:19:08.747Z,6.90
2023-09-06T20:21:55.579Z,6.28
2023-09-06T20:24:42.417Z,6.05
2023-09-06T20:27:31.503Z,6.63
2023-09-06T20:30:18.485Z,7.07
2023-09-06T20:33:05.624Z,6.68
2023-09-06T20:35:52.713Z,7.63
2023-09-06T20:38:39.646Z,6.60
2023-09-06T20:41:26.592Z,7.25
2023-09-06T20:44:13.548Z,6.57
2023-09-06T20:47:01.906Z,6.30
2023-09-06T20:49:49.096Z,7.07
2023-09-06T20:52:36.115Z,5.60
2023-09-06T20:55:23.072Z,6.38
2023-09-06T20:58:09.922Z,6.53
2023-09-06T21:00:56.818Z,6.18
2023-09-06T21:03:43.909Z,6.35
2023-09-06T21:06:32.259Z,6.68
2023-09-06T21:12:06.101Z,6.40
2023-09-06T21:14:53.020Z,6.70
2023-09-06T21:17:40.049Z,5.57
2023-09-06T21:20:28.984Z,6.80
2023-09-06T21:23:15.904Z,6.35
2023-09-06T21:26:06.053Z,6.80
2023-09-06T21:28:52.956Z,6.53
2023-09-06T21:31:39.875Z,7.22
2023-09-06T21:34:27.003Z,6.38
2023-09-06T21:37:14.090Z,6.55
2023-09-06T21:40:01.245Z,6.28
2023-09-06T21:42:48.104Z,6.55
2023-09-06T21:45:37.083Z,7.03
2023-09-06T21:48:25.328Z,6.75
2023-09-06T21:51:17.225Z,6.82
2023-09-06T21:54:04.220Z,6.88
2023-09-06T21:56:51.067Z,7.00
2023-09-06T21:59:37.931Z,6.53
2023-09-06T22:02:24.795Z,6.70
2023-09-06T22:05:11.748Z,5.95
2023-09-06T22:07:58.685Z,6.68
2023-09-06T22:10:45.581Z,6.47
2023-09-06T22:13:32.717Z,7.00
2023-09-06T22:16:19.783Z,6.43
2023-09-06T22:19:07.557Z,6.63
2023-09-06T22:21:54.565Z,6.72
2023-09-06T22:24:41.539Z,7.50
2023-09-06T22:27:28.429Z,7.85
2023-09-06T22:30:15.328Z,6.47
2023-09-06T22:33:02.265Z,7.18
2023-09-06T22:35:49.164Z,7.13
2023-09-06T22:38:36.437Z,7.15
2023-09-06T22:41:23.332Z,6.57
2023-09-06T22:44:10.210Z,7.68
2023-09-06T22:46:57.155Z,7.28
2023-09-06T22:49:44.228Z,7.35
2023-09-06T22:52:31.440Z,7.63
2023-09-06T22:55:18.429Z,6.60
2023-09-06T22:58:05.451Z,6.90
2023-09-06T23:00:52.539Z,8.88
2023-09-06T23:03:43.327Z,8.63
2023-09-06T23:06:30.875Z,7.03
2023-09-06T23:09:20.295Z,7.35
2023-09-06T23:12:07.879Z,6.97
2023-09-06T23:14:54.803Z,6.97
2023-09-06T23:17:45.994Z,7.97
2023-09-06T23:20:37.645Z,6.97
2023-09-06T23:23:26.303Z,7.25
2023-09-06T23:26:15.078Z,7.00
2023-09-06T23:29:07.506Z,7.63
2023-09-06T23:31:55.663Z,7.63
2023-09-06T23:37:33.453Z,7.32
2023-09-06T23:40:24.836Z,8.40
2023-09-06T23:43:11.985Z,8.07
2023-09-06T23:45:58.946Z,7.82
2023-09-06T23:48:46.229Z,9.35
2023-09-06T23:51:33.115Z,8.30
2023-09-06T23:54:24.817Z,7.53
2023-09-06T23:57:18.781Z,7.63
